createdAt,value
2022-10-19T00:01:14.438Z,28.52
2022-10-19T00:03:43.355Z,25.30
2022-10-19T00:06:13.444Z,23.25
2022-10-19T00:08:41.501Z,32.15
2022-10-19T00:11:11.681Z,17.48
2022-10-19T00:13:39.895Z,18.83
2022-10-19T00:16:13.068Z,26.60
2022-10-19T00:18:43.241Z,23.92
2022-10-19T00:21:13.069Z,27.38
2022-10-19T00:23:40.936Z,29.08
2022-10-19T00:26:10.917Z,29.63
2022-10-19T00:28:38.893Z,26.52
2022-10-19T00:31:09.617Z,31.65
2022-10-19T00:33:37.714Z,23.13
2022-10-19T00:36:07.160Z,30.13
2022-10-19T00:38:34.992Z,28.73
2022-10-19T00:41:03.897Z,25.83
2022-10-19T00:43:33.191Z,28.25
2022-10-19T00:46:01.039Z,33.55
2022-10-19T00:48:33.795Z,23.52
2022-10-19T00:51:02.565Z,27.10
2022-10-19T00:53:32.082Z,47.05
2022-10-19T00:56:03.947Z,29.52
2022-10-19T00:58:33.860Z,32.58
2022-10-19T01:01:04.582Z,53.38
2022-10-19T01:03:32.991Z,92.68
2022-10-19T01:06:01.761Z,140.52
2022-10-19T01:08:29.825Z,127.50
2022-10-19T01:11:11.316Z,184.15
2022-10-19T01:13:48.278Z,116.78
2022-10-19T01:16:21.814Z,114.60
2022-10-19T01:18:59.125Z,145.05
2022-10-19T01:21:35.391Z,46.17
2022-10-19T01:24:37.003Z,47.45
2022-10-19T01:27:37.107Z,56.17
2022-10-19T01:30:17.256Z,52.97
2022-10-19T01:32:56.042Z,47.15
2022-10-19T01:35:32.902Z,51.95
2022-10-19T01:38:08.531Z,33.05
2022-10-19T01:40:43.176Z,49.20
2022-10-19T01:43:18.862Z,68.00
2022-10-19T01:45:53.304Z,42.22
2022-10-19T01:48:25.841Z,34.55
2022-10-19T01:50:58.513Z,33.90
2022-10-19T01:53:28.498Z,42.47
2022-10-19T01:55:58.162Z,46.80
2022-10-19T01:58:29.442Z,51.75
2022-10-19T02:01:03.087Z,87.82
2022-10-19T02:03:31.509Z,58.03
2022-10-19T02:06:00.505Z,128.82
2022-10-19T02:08:32.075Z,95.50
2022-10-19T02:11:01.020Z,56.05
2022-10-19T02:13:30.139Z,38.05
2022-10-19T02:16:02.867Z,34.08
2022-10-19T02:18:35.206Z,40.03
2022-10-19T02:21:04.626Z,36.15
2022-10-19T02:23:32.551Z,28.45
2022-10-19T02:26:00.663Z,33.63
2022-10-19T02:28:29.952Z,37.13
2022-10-19T02:31:00.105Z,65.32
2022-10-19T02:33:29.495Z,43.78
2022-10-19T02:35:58.396Z,121.20
2022-10-19T02:38:27.256Z,57.58
2022-10-19T02:41:03.645Z,118.57
2022-10-19T02:43:35.129Z,151.68
2022-10-19T02:46:09.275Z,422.02
2022-10-19T02:48:39.011Z,166.27
2022-10-19T02:51:07.074Z,174.30
2022-10-19T02:53:34.931Z,212.00
2022-10-19T02:56:02.773Z,102.18
2022-10-19T02:58:30.668Z,184.77
2022-10-19T03:00:58.660Z,272.35
2022-10-19T03:03:27.883Z,531.17
2022-10-19T03:05:56.668Z,375.60
2022-10-19T03:08:24.531Z,105.22
2022-10-19T03:10:52.409Z,312.90
2022-10-19T03:13:20.252Z,168.88
2022-10-19T03:15:48.185Z,140.45
2022-10-19T03:18:16.095Z,200.43
2022-10-19T03:20:45.673Z,143.48
2022-10-19T03:23:13.574Z,358.25
2022-10-19T03:25:41.414Z,174.25
2022-10-19T03:28:09.228Z,253.07
2022-10-19T03:30:37.055Z,160.70
2022-10-19T03:33:05.097Z,170.10
2022-10-19T03:35:32.965Z,75.22
2022-10-19T03:38:02.155Z,111.55
2022-10-19T03:40:30.044Z,97.28
2022-10-19T03:42:57.914Z,63.13
2022-10-19T03:45:25.778Z,56.42
2022-10-19T03:47:53.606Z,49.50
2022-10-19T03:50:21.505Z,57.20
2022-10-19T03:52:49.795Z,56.63
2022-10-19T03:55:19.081Z,74.10
2022-10-19T03:57:46.925Z,82.32
2022-10-19T04:00:15.750Z,50.42
2022-10-19T04:02:43.587Z,122.68
2022-10-19T04:05:11.422Z,82.40
2022-10-19T04:07:39.280Z,68.72
2022-10-19T04:10:07.947Z,106.82
2022-10-19T04:12:37.142Z,111.85
2022-10-19T04:15:05.818Z,294.80
2022-10-19T04:17:33.936Z,84.13
2022-10-19T04:20:02.025Z,98.75
2022-10-19T04:22:29.908Z,113.45
2022-10-19T04:24:57.767Z,154.32
2022-10-19T04:27:25.737Z,120.88
2022-10-19T04:29:54.947Z,161.63
2022-10-19T04:32:22.870Z,83.50
2022-10-19T04:34:50.780Z,60.00
2022-10-19T04:37:18.630Z,56.53
2022-10-19T04:39:46.530Z,54.35
2022-10-19T04:42:14.391Z,61.50
2022-10-19T04:44:42.260Z,51.80
2022-10-19T04:47:12.002Z,54.28
2022-10-19T04:49:39.886Z,58.63
2022-10-19T04:52:07.802Z,73.60
2022-10-19T04:54:35.668Z,62.47
2022-10-19T04:57:03.546Z,72.15
2022-10-19T04:59:31.418Z,71.55
2022-10-19T05:01:59.255Z,76.97
2022-10-19T05:04:28.472Z,71.35
2022-10-19T05:06:56.335Z,79.15
2022-10-19T05:09:24.332Z,89.38
2022-10-19T05:11:52.214Z,81.15
2022-10-19T05:14:20.188Z,74.85
2022-10-19T05:16:48.112Z,90.47
2022-10-19T05:19:16.039Z,69.18
2022-10-19T05:21:45.303Z,81.22
2022-10-19T05:24:13.565Z,69.05
2022-10-19T05:26:41.479Z,71.50
2022-10-19T05:29:13.512Z,80.32
2022-10-19T05:31:41.669Z,76.82
2022-10-19T05:34:09.619Z,68.03
2022-10-19T05:36:39.394Z,68.97
2022-10-19T05:39:12.755Z,69.88
2022-10-19T05:41:41.834Z,71.50
2022-10-19T05:44:14.515Z,76.50
2022-10-19T05:46:42.437Z,64.38
2022-10-19T05:49:11.613Z,82.32
2022-10-19T05:51:40.235Z,70.22
2022-10-19T05:54:09.876Z,76.65
2022-10-19T05:56:37.721Z,79.00
2022-10-19T05:59:08.008Z,69.05
2022-10-19T06:01:37.160Z,69.93
2022-10-19T06:04:06.908Z,73.85
2022-10-19T06:06:35.373Z,79.60
2022-10-19T06:09:03.532Z,211.57
2022-10-19T06:11:35.070Z,144.38
2022-10-19T06:14:06.064Z,105.50
2022-10-19T06:16:34.474Z,117.10
2022-10-19T06:19:02.566Z,99.63
2022-10-19T06:21:32.479Z,117.05
2022-10-19T06:24:02.772Z,83.43
2022-10-19T06:26:33.720Z,113.10
2022-10-19T06:29:03.649Z,76.22
2022-10-19T06:31:33.399Z,93.57
2022-10-19T06:34:01.417Z,157.18
2022-10-19T06:36:31.073Z,72.70
2022-10-19T06:39:01.579Z,142.25
2022-10-19T06:41:31.442Z,138.10
2022-10-19T06:44:00.709Z,136.82
2022-10-19T06:46:29.622Z,142.27
2022-10-19T06:48:59.127Z,113.95
2022-10-19T06:51:28.903Z,82.13
2022-10-19T06:53:57.635Z,99.63
2022-10-19T06:56:26.162Z,93.88
2022-10-19T06:58:54.240Z,139.65
2022-10-19T07:01:24.130Z,111.68
2022-10-19T07:03:52.870Z,127.78
2022-10-19T07:06:20.890Z,171.88
2022-10-19T07:08:49.147Z,111.10
2022-10-19T07:11:19.453Z,147.32
2022-10-19T07:13:47.435Z,174.07
2022-10-19T07:16:20.661Z,195.30
2022-10-19T07:18:52.167Z,136.70
2022-10-19T07:21:21.880Z,137.82
2022-10-19T07:23:49.913Z,176.65
2022-10-19T07:26:21.313Z,97.88
2022-10-19T07:28:50.285Z,114.22
2022-10-19T07:31:20.296Z,114.05
2022-10-19T07:33:48.262Z,139.68
2022-10-19T07:36:17.478Z,211.57
2022-10-19T07:38:45.335Z,74.60
2022-10-19T07:41:15.710Z,55.65
2022-10-19T07:43:45.402Z,137.95
2022-10-19T07:46:15.534Z,54.05
2022-10-19T07:48:44.007Z,72.03
2022-10-19T07:51:13.583Z,102.13
2022-10-19T07:53:43.327Z,109.60
2022-10-19T07:56:13.356Z,73.55
2022-10-19T07:58:41.592Z,53.20
2022-10-19T08:01:11.570Z,37.97
2022-10-19T08:06:28.444Z,38.08
2022-10-19T08:08:57.736Z,40.83
2022-10-19T08:11:28.242Z,39.65
2022-10-19T08:13:58.547Z,30.42
2022-10-19T08:16:28.644Z,34.72
2022-10-19T08:18:59.191Z,30.73
2022-10-19T08:21:27.577Z,35.03
2022-10-19T08:23:56.848Z,37.00
2022-10-19T08:26:24.873Z,28.50
2022-10-19T08:28:52.696Z,30.67
2022-10-19T08:31:22.444Z,29.42
2022-10-19T08:33:50.646Z,30.77
2022-10-19T08:36:20.088Z,30.73
2022-10-19T08:38:48.746Z,34.55
2022-10-19T08:41:24.213Z,30.38
2022-10-19T08:44:17.884Z,32.20
2022-10-19T08:46:57.479Z,33.17
2022-10-19T08:49:27.923Z,27.80
2022-10-19T08:51:59.523Z,29.40
2022-10-19T08:54:36.785Z,28.02
2022-10-19T08:57:12.041Z,28.73
2022-10-19T08:59:45.919Z,32.63
2022-10-19T09:02:19.091Z,27.15
2022-10-19T09:04:51.331Z,25.17
2022-10-19T09:07:26.712Z,19.60
2022-10-19T09:09:58.888Z,22.20
2022-10-19T09:12:38.722Z,22.13
2022-10-19T09:15:11.993Z,27.13
2022-10-19T09:17:39.910Z,26.38
2022-10-19T09:20:20.183Z,23.90
2022-10-19T09:22:52.645Z,27.50
2022-10-19T09:25:22.425Z,27.60
2022-10-19T09:27:59.860Z,18.42
2022-10-19T09:30:30.184Z,21.80
2022-10-19T09:33:01.532Z,21.30
2022-10-19T09:35:33.038Z,21.35
2022-10-19T09:38:01.574Z,22.60
2022-10-19T09:40:31.703Z,30.38
2022-10-19T09:43:08.717Z,23.80
2022-10-19T09:45:44.151Z,23.40
2022-10-19T09:48:20.358Z,20.30
2022-10-19T09:50:54.550Z,20.83
2022-10-19T09:53:22.795Z,20.88
2022-10-19T09:55:58.896Z,20.67
2022-10-19T09:58:32.899Z,21.50
2022-10-19T10:01:03.212Z,21.92
2022-10-19T10:03:33.192Z,21.77
2022-10-19T10:06:05.186Z,24.13
2022-10-19T10:08:36.586Z,22.13
2022-10-19T10:11:11.274Z,21.90
2022-10-19T10:13:43.030Z,25.05
2022-10-19T10:16:15.007Z,24.85
2022-10-19T10:18:52.719Z,25.20
2022-10-19T10:21:25.693Z,23.42
2022-10-19T10:24:05.841Z,22.52
2022-10-19T10:26:39.993Z,21.23
2022-10-19T10:29:21.030Z,24.20
2022-10-19T10:31:52.264Z,23.58
2022-10-19T10:34:45.646Z,27.52
2022-10-19T10:37:19.183Z,24.27
2022-10-19T10:39:47.390Z,26.55
2022-10-19T10:42:20.999Z,20.17
2022-10-19T10:44:52.807Z,23.70
2022-10-19T10:47:21.851Z,19.75
2022-10-19T10:49:56.962Z,18.38
2022-10-19T10:52:26.314Z,19.35
2022-10-19T10:55:02.292Z,18.50
2022-10-19T10:57:34.321Z,20.27
2022-10-19T11:00:11.211Z,14.30
2022-10-19T11:02:46.820Z,13.98
2022-10-19T11:05:20.223Z,10.57
2022-10-19T11:07:53.005Z,11.18
2022-10-19T11:10:27.354Z,9.52
2022-10-19T11:13:04.219Z,12.02
2022-10-19T11:15:37.998Z,12.20
2022-10-19T11:18:16.629Z,9.32
2022-10-19T11:20:51.247Z,7.72
2022-10-19T11:23:27.935Z,5.82
2022-10-19T11:26:09.202Z,8.48
2022-10-19T11:28:47.581Z,10.65
2022-10-19T11:31:21.542Z,8.65
2022-10-19T11:33:56.737Z,6.65
2022-10-19T11:36:43.226Z,7.10
2022-10-19T11:39:25.451Z,9.07
2022-10-19T11:42:02.218Z,9.95
2022-10-19T11:44:43.283Z,4.43
2022-10-19T11:47:29.858Z,7.07
2022-10-19T11:50:10.864Z,4.85
2022-10-19T11:52:47.171Z,6.55
2022-10-19T11:55:28.090Z,6.63
2022-10-19T11:58:06.508Z,4.45
2022-10-19T12:00:45.430Z,3.75
2022-10-19T12:03:46.393Z,12.73
2022-10-19T12:06:23.188Z,4.97
2022-10-19T12:09:04.950Z,4.95
2022-10-19T12:11:52.954Z,6.18
2022-10-19T12:14:25.426Z,6.50
2022-10-19T12:16:57.354Z,8.65
2022-10-19T12:19:30.002Z,7.03
2022-10-19T12:22:03.248Z,5.20
2022-10-19T12:24:33.662Z,8.48
2022-10-19T12:27:02.745Z,4.22
2022-10-19T12:29:34.955Z,4.15
2022-10-19T12:32:05.783Z,5.18
2022-10-19T12:34:45.561Z,7.75
2022-10-19T12:37:20.372Z,6.05
2022-10-19T12:39:57.592Z,6.43
2022-10-19T12:42:30.259Z,6.87
2022-10-19T12:45:19.703Z,6.95
2022-10-19T12:48:21.211Z,13.23
2022-10-19T12:51:12.970Z,5.00
2022-10-19T12:53:44.244Z,17.73
2022-10-19T12:56:18.237Z,8.98
2022-10-19T12:58:53.675Z,14.57
2022-10-19T13:01:25.342Z,9.52
2022-10-19T13:04:07.463Z,7.30
2022-10-19T13:06:40.413Z,10.35
2022-10-19T13:09:10.711Z,7.53
2022-10-19T13:12:21.535Z,9.75
2022-10-19T13:14:53.505Z,8.80
2022-10-19T13:17:41.243Z,11.32
2022-10-19T13:20:51.181Z,6.95
2022-10-19T13:23:40.055Z,8.77
2022-10-19T13:26:31.314Z,8.48
2022-10-19T13:28:59.188Z,9.18
2022-10-19T13:31:29.392Z,8.80
2022-10-19T13:33:58.059Z,9.70
2022-10-19T13:36:26.786Z,10.60
2022-10-19T13:39:20.237Z,14.75
2022-10-19T13:41:57.007Z,9.05
2022-10-19T13:44:33.428Z,10.20
2022-10-19T13:47:24.708Z,8.18
2022-10-19T13:50:27.639Z,9.68
2022-10-19T13:53:28.054Z,13.38
2022-10-19T13:56:16.251Z,10.65
2022-10-19T13:59:16.955Z,8.80
2022-10-19T14:01:58.125Z,7.97
2022-10-19T14:04:37.251Z,10.88
2022-10-19T14:07:11.501Z,9.82
2022-10-19T14:10:08.259Z,12.88
2022-10-19T14:12:43.109Z,10.20
2022-10-19T14:15:22.840Z,11.65
2022-10-19T14:17:51.188Z,11.90
2022-10-19T14:20:31.955Z,9.48
2022-10-19T14:23:18.044Z,14.20
2022-10-19T14:25:52.232Z,10.95
2022-10-19T14:28:23.713Z,10.52
2022-10-19T14:30:59.966Z,8.90
2022-10-19T14:33:29.346Z,11.73
2022-10-19T14:35:57.380Z,10.05
2022-10-19T14:38:30.616Z,15.40
2022-10-19T14:40:58.834Z,16.75
2022-10-19T14:43:29.919Z,8.48
2022-10-19T14:46:16.858Z,9.52
2022-10-19T14:48:46.686Z,8.30
2022-10-19T14:51:33.386Z,9.30
2022-10-19T14:54:06.220Z,13.80
2022-10-19T14:56:36.994Z,11.57
2022-10-19T14:59:17.347Z,8.15
2022-10-19T15:01:51.032Z,10.38
2022-10-19T15:04:21.437Z,11.43
2022-10-19T15:06:49.671Z,11.68
2022-10-19T15:09:37.104Z,8.15
2022-10-19T15:12:17.937Z,8.13
2022-10-19T15:14:48.664Z,13.10
2022-10-19T15:17:24.770Z,10.23
2022-10-19T15:19:53.666Z,9.52
2022-10-19T15:22:23.997Z,7.93
2022-10-19T15:25:00.732Z,6.85
2022-10-19T15:27:33.903Z,10.02
2022-10-19T15:30:06.173Z,8.02
2022-10-19T15:32:37.856Z,11.55
2022-10-19T15:35:13.823Z,10.65
2022-10-19T15:37:44.597Z,8.77
2022-10-19T15:40:18.902Z,9.20
2022-10-19T15:42:48.759Z,10.25
2022-10-19T15:45:33.728Z,11.00
2022-10-19T15:48:25.249Z,10.68
2022-10-19T15:50:53.506Z,14.88
2022-10-19T15:53:22.581Z,10.95
2022-10-19T15:55:50.763Z,12.55
2022-10-19T15:58:18.918Z,11.05
2022-10-19T16:00:48.148Z,9.20
2022-10-19T16:03:16.421Z,8.82
2022-10-19T16:05:44.388Z,10.73
2022-10-19T16:08:12.582Z,13.63
2022-10-19T16:10:40.554Z,10.70
2022-10-19T16:13:08.449Z,14.43
2022-10-19T16:15:36.298Z,9.73
2022-10-19T16:18:05.510Z,11.90
2022-10-19T16:20:33.447Z,11.93
2022-10-19T16:23:01.326Z,9.45
2022-10-19T16:25:29.319Z,10.57
2022-10-19T16:27:57.232Z,10.75
2022-10-19T16:30:25.239Z,13.52
2022-10-19T16:32:53.089Z,8.45
2022-10-19T16:35:23.017Z,12.85
2022-10-19T16:37:50.856Z,8.38
2022-10-19T16:40:18.720Z,9.30
2022-10-19T16:42:46.541Z,10.93
2022-10-19T16:45:14.380Z,10.27
2022-10-19T16:47:42.245Z,9.93
2022-10-19T16:50:12.383Z,11.60
2022-10-19T16:52:41.603Z,13.32
2022-10-19T16:55:09.921Z,16.75
2022-10-19T16:57:37.957Z,12.32
2022-10-19T17:00:09.417Z,14.32
2022-10-19T17:02:41.794Z,14.43
2022-10-19T17:05:12.224Z,19.05
2022-10-19T17:07:41.711Z,21.73
2022-10-19T17:10:10.566Z,16.50
2022-10-19T17:12:40.378Z,25.38
2022-10-19T17:15:40.868Z,18.88
2022-10-19T17:17:57.982Z,20.80
2022-10-19T17:20:25.847Z,17.52
2022-10-19T17:22:55.103Z,17.50
2022-10-19T17:25:22.985Z,18.13
2022-10-19T17:27:51.553Z,17.88
2022-10-19T17:30:19.815Z,18.40
2022-10-19T17:32:47.817Z,14.63
2022-10-19T17:35:15.889Z,15.98
2022-10-19T17:37:43.802Z,15.82
2022-10-19T17:40:13.816Z,16.75
2022-10-19T17:42:41.778Z,14.60
2022-10-19T17:45:11.060Z,20.48
2022-10-19T17:47:38.913Z,16.80
2022-10-19T17:50:07.524Z,17.02
2022-10-19T17:52:35.397Z,14.13
2022-10-19T17:55:18.742Z,18.90
2022-10-19T17:57:48.042Z,16.92
2022-10-19T18:00:16.451Z,14.20
2022-10-19T18:02:46.050Z,16.10
2022-10-19T18:05:14.074Z,13.27
2022-10-19T18:07:44.231Z,20.70
2022-10-19T18:10:12.155Z,17.80
2022-10-19T18:12:40.072Z,17.15
2022-10-19T18:15:10.100Z,15.95
2022-10-19T18:17:38.354Z,18.73
2022-10-19T18:20:07.760Z,19.98
2022-10-19T18:22:35.813Z,13.68
2022-10-19T18:25:03.892Z,12.80
2022-10-19T18:27:31.882Z,13.38
2022-10-19T18:29:59.853Z,13.80
2022-10-19T18:32:29.103Z,16.23
2022-10-19T18:34:56.995Z,11.55
2022-10-19T18:37:24.842Z,13.98
2022-10-19T18:39:52.745Z,11.18
2022-10-19T18:42:20.651Z,10.43
2022-10-19T18:44:48.523Z,15.48
2022-10-19T18:47:16.400Z,13.98
2022-10-19T18:49:45.645Z,19.52
2022-10-19T18:52:13.549Z,12.85
2022-10-19T18:54:41.481Z,14.88
2022-10-19T18:57:09.557Z,14.63
2022-10-19T18:59:37.486Z,14.48
2022-10-19T19:02:07.866Z,11.75
2022-10-19T19:04:41.523Z,11.20
2022-10-19T19:07:10.715Z,11.45
2022-10-19T19:09:39.036Z,12.20
2022-10-19T19:12:06.912Z,15.38
2022-10-19T19:14:34.864Z,11.88
2022-10-19T19:17:02.838Z,14.65
2022-10-19T19:19:30.939Z,15.32
2022-10-19T19:22:06.283Z,15.98
2022-10-19T19:24:38.038Z,10.15
2022-10-19T19:27:05.891Z,12.40
2022-10-19T19:29:33.841Z,11.60
2022-10-19T19:32:01.788Z,18.55
2022-10-19T19:34:29.649Z,10.80
2022-10-19T19:36:57.489Z,13.70
2022-10-19T19:39:25.351Z,14.05
2022-10-19T19:41:54.558Z,14.32
2022-10-19T19:44:22.452Z,13.65
2022-10-19T19:46:50.348Z,17.90
2022-10-19T19:49:18.219Z,16.10
2022-10-19T19:51:46.100Z,18.67
2022-10-19T19:54:13.993Z,19.92
2022-10-19T19:56:43.008Z,15.48
2022-10-19T19:59:13.432Z,13.82
2022-10-19T20:01:41.572Z,14.48
2022-10-19T20:04:10.164Z,16.25
2022-10-19T20:06:39.788Z,14.73
2022-10-19T20:09:09.023Z,17.35
2022-10-19T20:11:41.899Z,22.70
2022-10-19T20:14:11.836Z,16.42
2022-10-19T20:16:39.855Z,19.50
2022-10-19T20:19:12.028Z,19.23
2022-10-19T20:21:40.591Z,25.55
2022-10-19T20:24:08.988Z,21.23
2022-10-19T20:26:37.370Z,21.70
2022-10-19T20:29:05.968Z,18.73
2022-10-19T20:31:39.561Z,22.45
2022-10-19T20:34:13.537Z,24.42
2022-10-19T20:36:41.704Z,21.77
2022-10-19T20:39:09.960Z,24.05
2022-10-19T20:41:37.857Z,20.63
2022-10-19T20:44:06.026Z,18.73
2022-10-19T20:46:36.983Z,19.95
2022-10-19T20:49:05.298Z,26.42
2022-10-19T20:51:36.386Z,27.27
2022-10-19T20:54:06.149Z,21.42
2022-10-19T20:56:35.944Z,20.48
2022-10-19T20:59:05.552Z,15.95
2022-10-19T21:01:36.696Z,19.25
2022-10-19T21:04:07.021Z,20.88
2022-10-19T21:06:37.924Z,20.20
2022-10-19T21:09:06.048Z,27.48
2022-10-19T21:11:35.876Z,21.90
2022-10-19T21:14:05.612Z,20.85
2022-10-19T21:16:35.161Z,28.65
2022-10-19T21:19:05.944Z,30.85
2022-10-19T21:21:35.549Z,27.85
2022-10-19T21:24:06.286Z,27.33
2022-10-19T21:26:35.991Z,24.90
2022-10-19T21:29:05.019Z,25.38
2022-10-19T21:31:32.946Z,21.20
2022-10-19T21:34:04.390Z,18.55
2022-10-19T21:36:34.335Z,24.25
2022-10-19T21:39:02.594Z,21.92
2022-10-19T21:41:30.914Z,17.10
2022-10-19T21:43:59.554Z,21.63
2022-10-19T21:46:28.094Z,24.30
2022-10-19T21:48:56.811Z,24.25
2022-10-19T21:51:38.331Z,22.90
2022-10-19T21:54:08.086Z,21.58
2022-10-19T21:56:36.060Z,25.55
2022-10-19T21:59:04.950Z,26.33
2022-10-19T22:01:38.509Z,26.00
2022-10-19T22:04:12.812Z,26.15
2022-10-19T22:06:43.420Z,25.30
2022-10-19T22:09:13.791Z,26.33
2022-10-19T22:11:42.150Z,21.73
2022-10-19T22:14:12.573Z,20.42
2022-10-19T22:16:40.986Z,20.77
2022-10-19T22:19:10.021Z,22.63
2022-10-19T22:24:14.562Z,20.55
2022-10-19T22:26:44.083Z,23.92
2022-10-19T22:29:14.504Z,23.98
2022-10-19T22:31:42.436Z,23.65
2022-10-19T22:34:13.031Z,28.17
2022-10-19T22:36:40.981Z,29.02
2022-10-19T22:39:09.408Z,19.15
2022-10-19T22:41:38.654Z,22.75
2022-10-19T22:44:06.554Z,24.20
2022-10-19T22:46:34.403Z,22.70
2022-10-19T22:49:02.475Z,23.20
2022-10-19T22:51:30.488Z,28.92
2022-10-19T22:53:58.320Z,22.63
2022-10-19T22:56:26.234Z,23.92
2022-10-19T22:58:59.155Z,27.10
2022-10-19T23:01:27.483Z,25.77
2022-10-19T23:03:55.862Z,25.85
2022-10-19T23:06:24.260Z,28.38
2022-10-19T23:08:53.650Z,31.67
2022-10-19T23:11:22.530Z,28.25
2022-10-19T23:13:50.436Z,33.50
2022-10-19T23:16:19.656Z,26.83
2022-10-19T23:18:47.501Z,23.13
2022-10-19T23:21:16.101Z,26.60
2022-10-19T23:23:44.099Z,33.42
2022-10-19T23:26:14.092Z,24.30
2022-10-19T23:28:43.546Z,26.67
2022-10-19T23:31:13.298Z,29.52
2022-10-19T23:33:43.566Z,29.08
2022-10-19T23:36:15.034Z,24.00
2022-10-19T23:38:43.169Z,29.00
2022-10-19T23:41:11.583Z,32.25
2022-10-19T23:43:39.787Z,29.63
2022-10-19T23:46:08.422Z,30.90
2022-10-19T23:48:36.936Z,30.50
2022-10-19T23:51:07.783Z,31.77
2022-10-19T23:53:40.023Z,30.85
2022-10-19T23:56:13.948Z,30.45
2022-10-19T23:58:42.177Z,35.83
